Airfield :
LOGIN :

Register | Disclaimer

   EN    FR    IT 

 










Legend :    VFR   Marginal VFR   IFR   Intensive IFR   Very Intensive IFR
Visi :
Ceiling :
>= 8 km
>= 3000ft
5 to 8 km
1000 to 3000 ft
1500m to 5 km
500 to 1000 ft
800 to 1500m
200 to 500 ft
< 800m
< 200 ft
Symbols :   Thunderstorms  Fog  Heavy snow  Heavy precipitations  Wind > 20 kt
SIGMETs :     Misc.  Thunderstorms  Icing  Turbulence  Mountain Waves  Volcanic Ashes







- Airport Elevation : 794 ft


LKCV - Čáslav Air Base

CURRENT METAR :
  • 180700Z 14006KT 5000 BR OVC013 13/11 Q1017 NOSIG RMK GRN GRN

EXPIRED METARs :
  • 180630Z 16008KT 5000 BR OVC013 12/11 Q1017 RMK GRN
  • 180608Z 13003KT 090V170 3500 BR SCT005 BKN016 09/09 Q1017 RMK YLO
  • 180600Z 11002KT 2000 BR SCT005 BKN017 08/08 Q1017 NOSIG RMK YLO YLO
  • 180549Z VRB02KT 2000 BR SCT005 BKN017 08/07 Q1017 RMK YLO
  • 180500Z 11003KT 0600 FG SCT004 BKN020 07/07 Q1017 NOSIG RMK RED RED
  • 180449Z 10003KT 1200 BR MIFG NSC 08/07 Q1017 RMK AMB

TAF TAF LKCV
Valid from the 18 at 06:00 until the 19 at 06:00 UTC


180500Z 1806/1906 12004KT 5000 MIFG BR NSC
TEMPO 1806/1808 3000 MIFG BR BKN005
PROB40
TEMPO 1806/1808 0500 FG VV002
BECMG 1808/1810 CAVOK
BECMG 1810/1812 VRB02KT
BECMG 1822/1900 4000 MIFG BR
PROB40
TEMPO 1900/1906 0500 FG VV002
No reported NOTAMs for that airfield.



MET'MAP, your aeronautical weather chart ! - Copyright ORBIFLY December 2007 - Disclaimer

ORBIFLY MET'MAP TEAM :

Programming & Development : Alexandra Zaïnal
Concept & Development : Baudouin d'Aumeries
Co-Development & Prog : Marc-Olivier Méhu
Technical & hardware support : Manuel Goepfert

Contact : metmap@orbifly.com




SOURCES & CREDITS :

   NOAA